sensor_id;sensor_type;location;lat;lon;timestamp;pressure;altitude;pressure_sealevel;temperature;humidity
71195;BME280;58908;51.426;7.714;2023-05-24T00:01:45;100547.22;;;5.34;100.00
71195;BME280;58908;51.426;7.714;2023-05-24T00:04:12;100546.56;;;5.24;100.00
71195;BME280;58908;51.426;7.714;2023-05-24T00:06:39;100539.63;;;5.23;100.00
71195;BME280;58908;51.426;7.714;2023-05-24T00:09:05;100544.09;;;5.18;100.00
71195;BME280;58908;51.426;7.714;2023-05-24T00:11:32;100542.34;;;5.19;100.00
71195;BME280;58908;51.426;7.714;2023-05-24T00:13:58;100544.16;;;5.15;100.00
71195;BME280;58908;51.426;7.714;2023-05-24T00:16:26;100540.78;;;5.12;100.00
71195;BME280;58908;51.426;7.714;2023-05-24T00:18:52;100546.03;;;5.10;100.00
71195;BME280;58908;51.426;7.714;2023-05-24T00:21:18;100547.81;;;5.08;100.00
71195;BME280;58908;51.426;7.714;2023-05-24T00:23:45;100540.19;;;4.99;100.00
71195;BME280;58908;51.426;7.714;2023-05-24T00:26:11;100548.03;;;4.98;100.00
71195;BME280;58908;51.426;7.714;2023-05-24T00:28:37;100538.69;;;4.88;100.00
71195;BME280;58908;51.426;7.714;2023-05-24T00:31:04;100540.31;;;4.93;100.00
71195;BME280;58908;51.426;7.714;2023-05-24T00:33:33;100539.44;;;4.94;100.00
71195;BME280;58908;51.426;7.714;2023-05-24T00:35:59;100539.53;;;4.90;100.00
71195;BME280;58908;51.426;7.714;2023-05-24T00:38:26;100540.53;;;4.84;100.00
71195;BME280;58908;51.426;7.714;2023-05-24T00:40:52;100531.81;;;4.84;100.00
71195;BME280;58908;51.426;7.714;2023-05-24T00:43:20;100538.91;;;4.79;100.00
71195;BME280;58908;51.426;7.714;2023-05-24T00:45:46;100535.50;;;4.74;100.00
71195;BME280;58908;51.426;7.714;2023-05-24T00:48:12;100526.06;;;4.68;100.00
71195;BME280;58908;51.426;7.714;2023-05-24T00:50:40;100532.19;;;4.66;100.00
71195;BME280;58908;51.426;7.714;2023-05-24T00:53:06;100534.88;;;4.63;100.00
71195;BME280;58908;51.426;7.714;2023-05-24T00:55:34;100527.88;;;4.65;100.00
71195;BME280;58908;51.426;7.714;2023-05-24T00:58:01;100533.19;;;4.60;100.00
71195;BME280;58908;51.426;7.714;2023-05-24T01:00:27;100528.91;;;4.58;100.00
71195;BME280;58908;51.426;7.714;2023-05-24T01:02:54;100535.91;;;4.56;100.00
71195;BME280;58908;51.426;7.714;2023-05-24T01:05:21;100536.91;;;4.49;100.00
71195;BME280;58908;51.426;7.714;2023-05-24T01:07:52;100536.91;;;4.51;100.00
71195;BME280;58908;51.426;7.714;2023-05-24T01:10:23;100533.41;;;4.50;100.00
71195;BME280;58908;51.426;7.714;2023-05-24T01:12:52;100542.25;;;4.43;100.00
71195;BME280;58908;51.426;7.714;2023-05-24T01:15:23;100537.00;;;4.45;100.00
71195;BME280;58908;51.426;7.714;2023-05-24T01:17:50;100540.50;;;4.45;100.00
71195;BME280;58908;51.426;7.714;2023-05-24T01:20:19;100538.63;;;4.50;100.00
71195;BME280;58908;51.426;7.714;2023-05-24T01:25:37;100543.69;;;4.59;100.00
71195;BME280;58908;51.426;7.714;2023-05-24T01:28:07;100537.63;;;4.57;100.00
71195;BME280;58908;51.426;7.714;2023-05-24T01:30:34;100536.03;;;4.50;100.00
71195;BME280;58908;51.426;7.714;2023-05-24T01:33:01;100524.06;;;4.39;100.00
71195;BME280;58908;51.426;7.714;2023-05-24T01:35:28;100520.69;;;4.35;100.00
71195;BME280;58908;51.426;7.714;2023-05-24T01:37:54;100518.97;;;4.34;100.00
71195;BME280;58908;51.426;7.714;2023-05-24T01:40:20;100519.88;;;4.32;100.00
71195;BME280;58908;51.426;7.714;2023-05-24T01:42:47;100513.13;;;4.20;100.00
71195;BME280;58908;51.426;7.714;2023-05-24T01:45:19;100506.03;;;4.27;100.00
71195;BME280;58908;51.426;7.714;2023-05-24T01:47:53;100499.97;;;4.26;100.00
71195;BME280;58908;51.426;7.714;2023-05-24T01:50:23;100498.25;;;4.25;100.00
71195;BME280;58908;51.426;7.714;2023-05-24T01:52:50;100505.28;;;4.20;100.00
71195;BME280;58908;51.426;7.714;2023-05-24T01:55:17;100502.75;;;4.17;100.00
71195;BME280;58908;51.426;7.714;2023-05-24T01:57:44;100494.91;;;4.19;100.00
71195;BME280;58908;51.426;7.714;2023-05-24T02:00:12;100495.75;;;4.19;100.00
71195;BME280;58908;51.426;7.714;2023-05-24T02:02:40;100495.81;;;4.16;100.00
71195;BME280;58908;51.426;7.714;2023-05-24T02:05:07;100494.94;;;4.16;100.00
71195;BME280;58908;51.426;7.714;2023-05-24T02:07:34;100499.38;;;4.12;100.00
71195;BME280;58908;51.426;7.714;2023-05-24T02:10:00;100499.38;;;4.12;100.00
71195;BME280;58908;51.426;7.714;2023-05-24T02:12:27;100500.22;;;4.13;100.00
71195;BME280;58908;51.426;7.714;2023-05-24T02:14:53;100494.41;;;3.99;100.00
71195;BME280;58908;51.426;7.714;2023-05-24T02:17:21;100497.69;;;4.08;100.00
71195;BME280;58908;51.426;7.714;2023-05-24T02:19:51;100502.16;;;4.03;100.00
71195;BME280;58908;51.426;7.714;2023-05-24T02:22:17;100495.25;;;3.99;100.00
71195;BME280;58908;51.426;7.714;2023-05-24T02:24:46;100491.88;;;3.96;100.00
71195;BME280;58908;51.426;7.714;2023-05-24T02:27:12;100480.72;;;3.86;100.00
71195;BME280;58908;51.426;7.714;2023-05-24T02:29:38;100484.28;;;3.84;100.00
71195;BME280;58908;51.426;7.714;2023-05-24T02:32:05;100486.03;;;3.82;100.00
71195;BME280;58908;51.426;7.714;2023-05-24T02:34:32;100483.31;;;3.88;100.00
71195;BME280;58908;51.426;7.714;2023-05-24T02:36:59;100488.41;;;3.94;100.00
71195;BME280;58908;51.426;7.714;2023-05-24T02:39:26;100489.28;;;3.94;100.00
71195;BME280;58908;51.426;7.714;2023-05-24T02:41:52;100487.59;;;3.92;100.00
71195;BME280;58908;51.426;7.714;2023-05-24T02:44:18;100476.41;;;3.85;100.00
71195;BME280;58908;51.426;7.714;2023-05-24T02:46:44;100477.22;;;3.89;100.00
71195;BME280;58908;51.426;7.714;2023-05-24T02:49:10;100487.75;;;3.83;100.00
71195;BME280;58908;51.426;7.714;2023-05-24T02:51:37;100487.88;;;3.77;100.00
71195;BME280;58908;51.426;7.714;2023-05-24T02:54:05;100486.09;;;3.77;100.00
71195;BME280;58908;51.426;7.714;2023-05-24T02:56:31;100487.88;;;3.77;100.00
71195;BME280;58908;51.426;7.714;2023-05-24T02:58:58;100486.09;;;3.80;100.00
71195;BME280;58908;51.426;7.714;2023-05-24T03:01:24;100487.09;;;3.72;100.00
71195;BME280;58908;51.426;7.714;2023-05-24T03:03:51;100497.66;;;3.66;100.00
71195;BME280;58908;51.426;7.714;2023-05-24T03:06:18;100498.47;;;3.68;100.00
71195;BME280;58908;51.426;7.714;2023-05-24T03:08:44;100494.22;;;3.64;100.00
71195;BME280;58908;51.426;7.714;2023-05-24T03:11:12;100491.63;;;3.62;100.00
71195;BME280;58908;51.426;7.714;2023-05-24T03:13:39;100493.41;;;3.60;100.00
71195;BME280;58908;51.426;7.714;2023-05-24T03:16:05;100494.22;;;3.64;100.00
71195;BME280;58908;51.426;7.714;2023-05-24T03:18:32;100487.31;;;3.60;100.00
71195;BME280;58908;51.426;7.714;2023-05-24T03:20:58;100496.84;;;3.62;100.00
71195;BME280;58908;51.426;7.714;2023-05-24T03:23:24;100484.69;;;3.61;100.00
71195;BME280;58908;51.426;7.714;2023-05-24T03:25:51;100498.53;;;3.65;100.00
71195;BME280;58908;51.426;7.714;2023-05-24T03:28:18;100501.97;;;3.67;100.00
71195;BME280;58908;51.426;7.714;2023-05-24T03:30:46;100492.38;;;3.69;100.00
71195;BME280;58908;51.426;7.714;2023-05-24T03:33:12;100492.34;;;3.70;100.00
71195;BME280;58908;51.426;7.714;2023-05-24T03:35:38;100497.66;;;3.64;100.00
71195;BME280;58908;51.426;7.714;2023-05-24T03:38:04;100492.41;;;3.67;100.00
71195;BME280;58908;51.426;7.714;2023-05-24T03:40:31;100494.22;;;3.64;100.00
71195;BME280;58908;51.426;7.714;2023-05-24T03:42:58;100505.56;;;3.60;100.00
71195;BME280;58908;51.426;7.714;2023-05-24T03:45:26;100508.09;;;3.64;100.00
71195;BME280;58908;51.426;7.714;2023-05-24T03:47:52;100513.16;;;3.72;100.00
71195;BME280;58908;51.426;7.714;2023-05-24T03:50:18;100511.34;;;3.77;100.00
71195;BME280;58908;51.426;7.714;2023-05-24T03:52:45;100511.22;;;3.83;100.00
71195;BME280;58908;51.426;7.714;2023-05-24T03:55:12;100520.81;;;3.82;100.00
71195;BME280;58908;51.426;7.714;2023-05-24T03:57:38;100518.38;;;3.72;100.00
71195;BME280;58908;51.426;7.714;2023-05-24T04:00:06;100524.47;;;3.74;100.00
71195;BME280;58908;51.426;7.714;2023-05-24T04:02:34;100520.09;;;3.74;100.00
71195;BME280;58908;51.426;7.714;2023-05-24T04:05:01;100523.53;;;3.76;100.00
71195;BME280;58908;51.426;7.714;2023-05-24T04:07:28;100522.59;;;3.80;100.00
71195;BME280;58908;51.426;7.714;2023-05-24T04:09:57;100532.00;;;3.89;100.00
71195;BME280;58908;51.426;7.714;2023-05-24T04:12:24;100524.94;;;3.95;100.00
71195;BME280;58908;51.426;7.714;2023-05-24T04:14:50;100527.44;;;4.01;100.00
71195;BME280;58908;51.426;7.714;2023-05-24T04:17:16;100533.31;;;4.12;100.00
71195;BME280;58908;51.426;7.714;2023-05-24T04:19:44;100530.34;;;4.30;100.00
71195;BME280;58908;51.426;7.714;2023-05-24T04:22:11;100530.97;;;4.41;100.00
71195;BME280;58908;51.426;7.714;2023-05-24T04:24:37;100538.66;;;4.49;100.00
71195;BME280;58908;51.426;7.714;2023-05-24T04:27:03;100539.31;;;4.59;100.00
71195;BME280;58908;51.426;7.714;2023-05-24T04:29:29;100544.16;;;4.76;100.00
71195;BME280;58908;51.426;7.714;2023-05-24T04:31:57;100539.47;;;4.93;100.00
71195;BME280;58908;51.426;7.714;2023-05-24T04:34:24;100545.22;;;5.07;100.00
71195;BME280;58908;51.426;7.714;2023-05-24T04:36:54;100537.78;;;5.27;100.00
71195;BME280;58908;51.426;7.714;2023-05-24T04:39:21;100545.22;;;5.45;100.00
71195;BME280;58908;51.426;7.714;2023-05-24T04:41:48;100544.63;;;5.67;100.00
71195;BME280;58908;51.426;7.714;2023-05-24T04:44:16;100553.72;;;5.88;100.00
71195;BME280;58908;51.426;7.714;2023-05-24T04:46:43;100550.50;;;6.12;100.00
71195;BME280;58908;51.426;7.714;2023-05-24T04:49:09;100546.41;;;6.34;100.00
71195;BME280;58908;51.426;7.714;2023-05-24T04:51:35;100551.78;;;6.58;100.00
71195;BME280;58908;51.426;7.714;2023-05-24T04:54:04;100551.38;;;6.73;100.00
71195;BME280;58908;51.426;7.714;2023-05-24T04:56:32;100544.88;;;6.86;100.00
71195;BME280;58908;51.426;7.714;2023-05-24T04:58:59;100542.00;;;6.94;100.00
71195;BME280;58908;51.426;7.714;2023-05-24T05:01:25;100536.38;;;7.05;100.00
71195;BME280;58908;51.426;7.714;2023-05-24T05:03:51;100542.34;;;7.10;100.00
71195;BME280;58908;51.426;7.714;2023-05-24T05:06:17;100550.59;;;7.26;100.00
71195;BME280;58908;51.426;7.714;2023-05-24T05:08:44;100548.28;;;7.44;100.00
71195;BME280;58908;51.426;7.714;2023-05-24T05:11:12;100536.97;;;7.68;100.00
71195;BME280;58908;51.426;7.714;2023-05-24T05:13:40;100531.66;;;7.70;100.00
71195;BME280;58908;51.426;7.714;2023-05-24T05:16:06;100527.00;;;7.78;100.00
71195;BME280;58908;51.426;7.714;2023-05-24T05:18:33;100519.75;;;7.86;100.00
71195;BME280;58908;51.426;7.714;2023-05-24T05:20:59;100514.00;;;7.99;100.00
71195;BME280;58908;51.426;7.714;2023-05-24T05:23:27;100503.00;;;8.13;100.00
71195;BME280;58908;51.426;7.714;2023-05-24T05:25:53;100500.50;;;8.10;100.00
71195;BME280;58908;51.426;7.714;2023-05-24T05:28:20;100505.31;;;8.23;100.00
71195;BME280;58908;51.426;7.714;2023-05-24T05:30:47;100512.19;;;8.26;100.00
71195;BME280;58908;51.426;7.714;2023-05-24T05:33:13;100504.16;;;8.30;100.00
71195;BME280;58908;51.426;7.714;2023-05-24T05:35:39;100509.25;;;8.35;100.00
71195;BME280;58908;51.426;7.714;2023-05-24T05:38:06;100496.91;;;8.37;100.00
71195;BME280;58908;51.426;7.714;2023-05-24T05:40:32;100517.84;;;8.40;100.00
71195;BME280;58908;51.426;7.714;2023-05-24T05:42:58;100515.59;;;8.29;100.00
71195;BME280;58908;51.426;7.714;2023-05-24T05:45:26;100507.09;;;8.21;100.00
71195;BME280;58908;51.426;7.714;2023-05-24T05:47:52;100504.56;;;8.20;100.00
71195;BME280;58908;51.426;7.714;2023-05-24T05:50:18;100497.03;;;8.34;100.00
71195;BME280;58908;51.426;7.714;2023-05-24T05:52:45;100492.22;;;8.68;100.00
71195;BME280;58908;51.426;7.714;2023-05-24T05:55:11;100501.28;;;8.84;100.00
71195;BME280;58908;51.426;7.714;2023-05-24T05:57:37;100504.41;;;8.93;100.00
71195;BME280;58908;51.426;7.714;2023-05-24T06:00:04;100506.72;;;9.01;100.00
71195;BME280;58908;51.426;7.714;2023-05-24T06:02:32;100497.72;;;8.85;100.00
71195;BME280;58908;51.426;7.714;2023-05-24T06:04:58;100495.34;;;9.00;100.00
71195;BME280;58908;51.426;7.714;2023-05-24T06:07:25;100496.69;;;8.89;100.00
71195;BME280;58908;51.426;7.714;2023-05-24T06:09:51;100488.13;;;8.84;100.00
71195;BME280;58908;51.426;7.714;2023-05-24T06:12:17;100498.88;;;8.99;100.00
71195;BME280;58908;51.426;7.714;2023-05-24T06:14:43;100504.16;;;8.76;100.00
71195;BME280;58908;51.426;7.714;2023-05-24T06:17:12;100496.97;;;8.81;100.00
71195;BME280;58908;51.426;7.714;2023-05-24T06:19:39;100503.94;;;8.82;100.00
71195;BME280;58908;51.426;7.714;2023-05-24T06:22:06;100508.88;;;8.68;100.00
71195;BME280;58908;51.426;7.714;2023-05-24T06:24:32;100516.34;;;8.79;100.00
71195;BME280;58908;51.426;7.714;2023-05-24T06:26:59;100519.69;;;8.84;100.00
71195;BME280;58908;51.426;7.714;2023-05-24T06:29:25;100514.50;;;9.04;100.00
71195;BME280;58908;51.426;7.714;2023-05-24T06:31:52;100513.16;;;9.15;100.00
71195;BME280;58908;51.426;7.714;2023-05-24T06:34:18;100510.06;;;9.27;100.00
71195;BME280;58908;51.426;7.714;2023-05-24T06:36:47;100507.31;;;10.13;100.00
71195;BME280;58908;51.426;7.714;2023-05-24T06:39:15;100502.22;;;10.67;100.00
71195;BME280;58908;51.426;7.714;2023-05-24T06:41:41;100507.91;;;10.58;100.00
71195;BME280;58908;51.426;7.714;2023-05-24T06:44:08;100510.19;;;11.39;100.00
71195;BME280;58908;51.426;7.714;2023-05-24T06:46:35;100514.91;;;10.59;100.00
71195;BME280;58908;51.426;7.714;2023-05-24T06:49:01;100513.03;;;10.22;100.00
71195;BME280;58908;51.426;7.714;2023-05-24T06:51:28;100511.91;;;10.08;100.00
71195;BME280;58908;51.426;7.714;2023-05-24T06:53:56;100522.81;;;9.99;100.00
71195;BME280;58908;51.426;7.714;2023-05-24T06:56:22;100515.66;;;10.22;100.00
71195;BME280;58908;51.426;7.714;2023-05-24T06:58:49;100510.41;;;10.22;100.00
71195;BME280;58908;51.426;7.714;2023-05-24T07:01:15;100504.94;;;10.65;100.00
71195;BME280;58908;51.426;7.714;2023-05-24T07:03:42;100503.50;;;11.68;100.00
71195;BME280;58908;51.426;7.714;2023-05-24T07:06:08;100509.00;;;11.63;100.00
71195;BME280;58908;51.426;7.714;2023-05-24T07:08:38;100497.06;;;11.73;100.00
71195;BME280;58908;51.426;7.714;2023-05-24T07:11:05;100501.66;;;11.16;100.00
71195;BME280;58908;51.426;7.714;2023-05-24T07:13:32;100505.59;;;10.89;100.00
71195;BME280;58908;51.426;7.714;2023-05-24T07:15:58;100509.94;;;11.08;100.00
71195;BME280;58908;51.426;7.714;2023-05-24T07:18:24;100514.34;;;10.89;100.00
71195;BME280;58908;51.426;7.714;2023-05-24T07:20:51;100516.41;;;11.01;100.00
71195;BME280;58908;51.426;7.714;2023-05-24T07:23:17;100522.84;;;10.96;100.00
71195;BME280;58908;51.426;7.714;2023-05-24T07:25:43;100516.78;;;10.75;100.00
71195;BME280;58908;51.426;7.714;2023-05-24T07:28:11;100522.13;;;10.74;100.00
71195;BME280;58908;51.426;7.714;2023-05-24T07:30:38;100519.31;;;10.77;100.00
71195;BME280;58908;51.426;7.714;2023-05-24T07:33:04;100530.84;;;10.94;100.00
71195;BME280;58908;51.426;7.714;2023-05-24T07:35:30;100522.91;;;11.13;100.00
71195;BME280;58908;51.426;7.714;2023-05-24T07:37:56;100508.25;;;11.78;100.00
71195;BME280;58908;51.426;7.714;2023-05-24T07:40:23;100507.22;;;11.97;100.00
71195;BME280;58908;51.426;7.714;2023-05-24T07:42:49;100499.81;;;12.70;100.00
71195;BME280;58908;51.426;7.714;2023-05-24T07:45:17;100503.13;;;12.41;100.00
71195;BME280;58908;51.426;7.714;2023-05-24T07:47:43;100507.16;;;11.99;100.00
71195;BME280;58908;51.426;7.714;2023-05-24T07:50:10;100521.22;;;11.47;100.00
71195;BME280;58908;51.426;7.714;2023-05-24T07:52:36;100520.94;;;11.53;100.00
71195;BME280;58908;51.426;7.714;2023-05-24T07:55:03;100525.00;;;11.42;100.00
71195;BME280;58908;51.426;7.714;2023-05-24T07:57:30;100517.63;;;11.48;100.00
71195;BME280;58908;51.426;7.714;2023-05-24T07:59:56;100524.88;;;11.26;100.00
71195;BME280;58908;51.426;7.714;2023-05-24T08:02:24;100521.06;;;11.15;100.00
71195;BME280;58908;51.426;7.714;2023-05-24T08:04:53;100527.25;;;10.77;100.00
71195;BME280;58908;51.426;7.714;2023-05-24T08:07:20;100519.19;;;10.61;100.00
71195;BME280;58908;51.426;7.714;2023-05-24T08:09:46;100522.31;;;10.69;100.00
71195;BME280;58908;51.426;7.714;2023-05-24T08:12:13;100514.31;;;10.52;100.00
71195;BME280;58908;51.426;7.714;2023-05-24T08:14:39;100525.97;;;10.67;100.00
71195;BME280;58908;51.426;7.714;2023-05-24T08:17:05;100522.56;;;10.83;100.00
71195;BME280;58908;51.426;7.714;2023-05-24T08:19:33;100528.75;;;10.82;100.00
71195;BME280;58908;51.426;7.714;2023-05-24T08:21:59;100525.63;;;11.11;100.00
71195;BME280;58908;51.426;7.714;2023-05-24T08:24:28;100523.00;;;10.93;100.00
71195;BME280;58908;51.426;7.714;2023-05-24T08:26:55;100529.78;;;10.98;100.00
71195;BME280;58908;51.426;7.714;2023-05-24T08:29:21;100536.53;;;11.04;100.00
71195;BME280;58908;51.426;7.714;2023-05-24T08:31:48;100524.31;;;11.20;100.00
71195;BME280;58908;51.426;7.714;2023-05-24T08:34:14;100524.75;;;10.74;100.00
71195;BME280;58908;51.426;7.714;2023-05-24T08:36:41;100532.78;;;10.91;100.00
71195;BME280;58908;51.426;7.714;2023-05-24T08:39:08;100529.53;;;11.21;100.00
71195;BME280;58908;51.426;7.714;2023-05-24T08:41:34;100528.75;;;11.19;100.00
71195;BME280;58908;51.426;7.714;2023-05-24T08:44:01;100539.03;;;11.07;100.00
71195;BME280;58908;51.426;7.714;2023-05-24T08:46:30;100547.00;;;10.87;100.00
71195;BME280;58908;51.426;7.714;2023-05-24T08:48:57;100545.25;;;10.87;100.00
71195;BME280;58908;51.426;7.714;2023-05-24T08:51:24;100538.75;;;10.94;100.00
71195;BME280;58908;51.426;7.714;2023-05-24T08:53:52;100538.88;;;10.91;100.00
71195;BME280;58908;51.426;7.714;2023-05-24T08:56:19;100532.47;;;10.97;100.00
71195;BME280;58908;51.426;7.714;2023-05-24T08:58:47;100532.91;;;11.25;100.00
71195;BME280;58908;51.426;7.714;2023-05-24T09:01:14;100533.13;;;11.20;100.00
71195;BME280;58908;51.426;7.714;2023-05-24T09:03:42;100526.28;;;11.52;100.00
71195;BME280;58908;51.426;7.714;2023-05-24T09:06:08;100523.78;;;11.49;100.00
71195;BME280;58908;51.426;7.714;2023-05-24T09:08:36;100530.97;;;11.28;100.00
71195;BME280;58908;51.426;7.714;2023-05-24T09:11:03;100527.44;;;11.46;100.00
71195;BME280;58908;51.426;7.714;2023-05-24T09:13:30;100525.22;;;11.56;100.00
71195;BME280;58908;51.426;7.714;2023-05-24T09:15:57;100522.56;;;11.91;100.00
71195;BME280;58908;51.426;7.714;2023-05-24T09:18:23;100504.59;;;12.14;100.00
71195;BME280;58908;51.426;7.714;2023-05-24T09:20:49;100500.41;;;12.75;100.00
71195;BME280;58908;51.426;7.714;2023-05-24T09:23:16;100495.19;;;13.82;100.00
71195;BME280;58908;51.426;7.714;2023-05-24T09:25:42;100489.94;;;14.10;94.15
71195;BME280;58908;51.426;7.714;2023-05-24T09:28:11;100496.63;;;13.88;93.70
71195;BME280;58908;51.426;7.714;2023-05-24T09:30:38;100503.81;;;13.41;92.50
71195;BME280;58908;51.426;7.714;2023-05-24T09:33:05;100499.19;;;12.16;95.56
71195;BME280;58908;51.426;7.714;2023-05-24T09:35:32;100512.22;;;11.51;100.00
71195;BME280;58908;51.426;7.714;2023-05-24T09:38:00;100523.16;;;11.44;100.00
71195;BME280;58908;51.426;7.714;2023-05-24T09:40:28;100514.31;;;11.45;100.00
71195;BME280;58908;51.426;7.714;2023-05-24T09:43:04;100522.69;;;11.71;100.00
71195;BME280;58908;51.426;7.714;2023-05-24T09:45:32;100518.78;;;11.43;100.00
71195;BME280;58908;51.426;7.714;2023-05-24T09:48:08;100519.44;;;11.48;100.00
71195;BME280;58908;51.426;7.714;2023-05-24T09:50:34;100524.06;;;11.07;100.00
71195;BME280;58908;51.426;7.714;2023-05-24T09:53:01;100530.47;;;11.20;100.00
71195;BME280;58908;51.426;7.714;2023-05-24T09:55:27;100532.97;;;11.23;100.00
71195;BME280;58908;51.426;7.714;2023-05-24T09:58:00;100529.31;;;11.26;100.00
71195;BME280;58908;51.426;7.714;2023-05-24T10:00:27;100522.75;;;11.34;100.00
71195;BME280;58908;51.426;7.714;2023-05-24T10:03:01;100517.19;;;11.40;100.00
71195;BME280;58908;51.426;7.714;2023-05-24T10:05:28;100521.16;;;11.49;100.00
71195;BME280;58908;51.426;7.714;2023-05-24T10:07:54;100517.06;;;11.60;100.00
71195;BME280;58908;51.426;7.714;2023-05-24T10:10:21;100510.34;;;11.72;100.00
71195;BME280;58908;51.426;7.714;2023-05-24T10:12:47;100508.47;;;11.74;100.00
71195;BME280;58908;51.426;7.714;2023-05-24T10:15:15;100505.81;;;12.07;100.00
71195;BME280;58908;51.426;7.714;2023-05-24T10:17:41;100508.44;;;12.41;100.00
71195;BME280;58908;51.426;7.714;2023-05-24T10:20:09;100510.88;;;12.29;100.00
71195;BME280;58908;51.426;7.714;2023-05-24T10:22:38;100513.88;;;12.06;100.00
71195;BME280;58908;51.426;7.714;2023-05-24T10:25:06;100524.19;;;12.10;100.00
71195;BME280;58908;51.426;7.714;2023-05-24T10:27:36;100530.38;;;11.59;100.00
71195;BME280;58908;51.426;7.714;2023-05-24T10:30:05;100530.56;;;11.54;100.00
71195;BME280;58908;51.426;7.714;2023-05-24T10:32:33;100531.97;;;11.80;100.00
71195;BME280;58908;51.426;7.714;2023-05-24T10:35:00;100526.06;;;11.92;100.00
71195;BME280;58908;51.426;7.714;2023-05-24T10:37:30;100523.50;;;11.90;100.00
71195;BME280;58908;51.426;7.714;2023-05-24T10:39:57;100527.13;;;11.71;100.00
71195;BME280;58908;51.426;7.714;2023-05-24T10:42:23;100532.75;;;11.28;100.00
71195;BME280;58908;51.426;7.714;2023-05-24T10:44:50;100532.94;;;11.42;100.00
71195;BME280;58908;51.426;7.714;2023-05-24T10:47:16;100522.56;;;11.56;100.00
71195;BME280;58908;51.426;7.714;2023-05-24T10:49:48;100528.09;;;11.51;100.00
71195;BME280;58908;51.426;7.714;2023-05-24T10:52:16;100518.34;;;11.35;100.00
71195;BME280;58908;51.426;7.714;2023-05-24T10:57:25;100516.47;;;11.54;100.00
71195;BME280;58908;51.426;7.714;2023-05-24T10:59:52;100515.19;;;11.81;100.00
71195;BME280;58908;51.426;7.714;2023-05-24T11:02:21;100508.56;;;11.89;100.00
71195;BME280;58908;51.426;7.714;2023-05-24T11:04:47;100512.13;;;12.05;100.00
71195;BME280;58908;51.426;7.714;2023-05-24T11:07:14;100512.75;;;11.93;100.00
71195;BME280;58908;51.426;7.714;2023-05-24T11:09:42;100508.00;;;11.99;100.00
71195;BME280;58908;51.426;7.714;2023-05-24T11:12:12;100518.19;;;11.73;100.00
71195;BME280;58908;51.426;7.714;2023-05-24T11:14:44;100509.97;;;11.96;100.00
71195;BME280;58908;51.426;7.714;2023-05-24T11:17:11;100516.72;;;11.85;100.00
71195;BME280;58908;51.426;7.714;2023-05-24T11:19:43;100517.88;;;11.79;100.00
71195;BME280;58908;51.426;7.714;2023-05-24T11:22:12;100513.66;;;12.26;100.00
71195;BME280;58908;51.426;7.714;2023-05-24T11:24:39;100504.13;;;12.56;100.00
71195;BME280;58908;51.426;7.714;2023-05-24T11:27:05;100515.19;;;12.47;100.00
71195;BME280;58908;51.426;7.714;2023-05-24T11:29:32;100509.97;;;12.95;100.00
71195;BME280;58908;51.426;7.714;2023-05-24T11:32:06;100504.88;;;12.75;100.00
71195;BME280;58908;51.426;7.714;2023-05-24T11:34:33;100500.56;;;12.72;99.61
71195;BME280;58908;51.426;7.714;2023-05-24T11:36:59;100505.91;;;12.88;100.00
71195;BME280;58908;51.426;7.714;2023-05-24T11:39:29;100508.84;;;12.34;99.88
71195;BME280;58908;51.426;7.714;2023-05-24T11:41:56;100526.19;;;11.72;100.00
71195;BME280;58908;51.426;7.714;2023-05-24T11:44:22;100519.97;;;11.73;100.00
71195;BME280;58908;51.426;7.714;2023-05-24T11:46:55;100518.94;;;11.58;100.00
71195;BME280;58908;51.426;7.714;2023-05-24T11:49:23;100520.38;;;12.16;100.00
71195;BME280;58908;51.426;7.714;2023-05-24T11:51:49;100516.00;;;12.15;100.00
71195;BME280;58908;51.426;7.714;2023-05-24T11:54:18;100508.88;;;11.83;100.00
71195;BME280;58908;51.426;7.714;2023-05-24T11:56:44;100510.03;;;11.94;100.00
71195;BME280;58908;51.426;7.714;2023-05-24T11:59:13;100509.94;;;11.79;100.00
71195;BME280;58908;51.426;7.714;2023-05-24T12:01:40;100516.38;;;11.38;100.00
71195;BME280;58908;51.426;7.714;2023-05-24T12:04:06;100520.44;;;11.45;100.00
71195;BME280;58908;51.426;7.714;2023-05-24T12:06:35;100520.84;;;11.73;100.00
71195;BME280;58908;51.426;7.714;2023-05-24T12:09:02;100517.97;;;11.78;100.00
71195;BME280;58908;51.426;7.714;2023-05-24T12:11:32;100516.00;;;11.81;100.00
71195;BME280;58908;51.426;7.714;2023-05-24T12:13:58;100519.00;;;11.38;100.00
71195;BME280;58908;51.426;7.714;2023-05-24T12:16:25;100524.56;;;11.69;100.00
71195;BME280;58908;51.426;7.714;2023-05-24T12:18:51;100524.81;;;11.82;100.00
71195;BME280;58908;51.426;7.714;2023-05-24T12:21:17;100531.31;;;11.21;100.00
71195;BME280;58908;51.426;7.714;2023-05-24T12:23:47;100523.34;;;11.22;100.00
71195;BME280;58908;51.426;7.714;2023-05-24T12:26:16;100537.19;;;11.09;100.00
71195;BME280;58908;51.426;7.714;2023-05-24T12:28:44;100528.69;;;11.39;100.00
71195;BME280;58908;51.426;7.714;2023-05-24T12:31:10;100526.59;;;11.27;100.00
71195;BME280;58908;51.426;7.714;2023-05-24T12:33:36;100536.06;;;11.50;100.00
71195;BME280;58908;51.426;7.714;2023-05-24T12:36:03;100529.94;;;11.68;100.00
71195;BME280;58908;51.426;7.714;2023-05-24T12:38:30;100538.09;;;11.80;100.00
71195;BME280;58908;51.426;7.714;2023-05-24T12:40:58;100528.94;;;11.87;100.00
71195;BME280;58908;51.426;7.714;2023-05-24T12:43:25;100535.16;;;11.86;100.00
71195;BME280;58908;51.426;7.714;2023-05-24T12:45:51;100530.97;;;11.99;100.00
71195;BME280;58908;51.426;7.714;2023-05-24T12:48:18;100532.50;;;12.03;100.00
71195;BME280;58908;51.426;7.714;2023-05-24T12:50:45;100533.13;;;11.91;100.00